sensor_id;sensor_type;location;lat;lon;timestamp;pressure;altitude;pressure_sealevel;temperature;humidity
9676;BME280;4876;42.656;23.292;2023-05-21T00:00:24;94238.41;;;14.79;90.71
9676;BME280;4876;42.656;23.292;2023-05-21T00:02:51;94230.91;;;14.81;90.44
9676;BME280;4876;42.656;23.292;2023-05-21T00:05:18;94228.59;;;14.79;90.39
9676;BME280;4876;42.656;23.292;2023-05-21T00:07:46;94220.31;;;14.81;89.98
9676;BME280;4876;42.656;23.292;2023-05-21T00:10:12;94226.28;;;14.78;90.52
9676;BME280;4876;42.656;23.292;2023-05-21T00:12:40;94224.06;;;14.80;90.22
9676;BME280;4876;42.656;23.292;2023-05-21T00:15:08;94221.78;;;14.78;90.00
9676;BME280;4876;42.656;23.292;2023-05-21T00:17:35;94220.31;;;14.81;89.57
9676;BME280;4876;42.656;23.292;2023-05-21T00:20:02;94217.38;;;14.70;90.14
9676;BME280;4876;42.656;23.292;2023-05-21T00:22:31;94220.03;;;14.70;90.58
9676;BME280;4876;42.656;23.292;2023-05-21T00:24:58;94213.66;;;14.59;90.86
9676;BME280;4876;42.656;23.292;2023-05-21T00:27:25;94214.03;;;14.45;91.35
9676;BME280;4876;42.656;23.292;2023-05-21T00:29:53;94210.53;;;14.41;92.18
9676;BME280;4876;42.656;23.292;2023-05-21T00:32:20;94215.00;;;14.25;92.39
9676;BME280;4876;42.656;23.292;2023-05-21T00:34:47;94208.28;;;14.15;94.36
9676;BME280;4876;42.656;23.292;2023-05-21T00:37:14;94212.34;;;14.25;93.58
9676;BME280;4876;42.656;23.292;2023-05-21T00:39:40;94205.06;;;14.22;93.79
9676;BME280;4876;42.656;23.292;2023-05-21T00:42:07;94213.03;;;14.10;94.74
9676;BME280;4876;42.656;23.292;2023-05-21T00:44:34;94206.22;;;14.09;94.31
9676;BME280;4876;42.656;23.292;2023-05-21T00:47:03;94206.22;;;14.09;93.68
9676;BME280;4876;42.656;23.292;2023-05-21T00:49:31;94210.66;;;13.92;95.02
9676;BME280;4876;42.656;23.292;2023-05-21T00:51:57;94205.38;;;13.92;95.64
9676;BME280;4876;42.656;23.292;2023-05-21T00:54:25;94204.47;;;14.00;95.00
9676;BME280;4876;42.656;23.292;2023-05-21T00:56:53;94201.19;;;13.91;94.27
9676;BME280;4876;42.656;23.292;2023-05-21T00:59:22;94198.97;;;13.93;95.13
9676;BME280;4876;42.656;23.292;2023-05-21T01:01:49;94201.19;;;13.91;95.47
9676;BME280;4876;42.656;23.292;2023-05-21T01:04:22;94204.59;;;13.92;95.47
9676;BME280;4876;42.656;23.292;2023-05-21T01:06:49;94190.72;;;13.95;95.28
9676;BME280;4876;42.656;23.292;2023-05-21T01:09:17;94198.31;;;13.96;94.62
9676;BME280;4876;42.656;23.292;2023-05-21T01:11:49;94195.22;;;13.94;94.66
9676;BME280;4876;42.656;23.292;2023-05-21T01:14:17;94178.81;;;13.89;94.33
9676;BME280;4876;42.656;23.292;2023-05-21T01:16:47;94192.44;;;14.03;94.76
9676;BME280;4876;42.656;23.292;2023-05-21T01:19:16;94194.78;;;14.05;94.78
9676;BME280;4876;42.656;23.292;2023-05-21T01:21:46;94179.75;;;14.09;94.46
9676;BME280;4876;42.656;23.292;2023-05-21T01:24:16;94189.22;;;14.10;94.43
9676;BME280;4876;42.656;23.292;2023-05-21T01:26:43;94182.19;;;14.14;93.21
9676;BME280;4876;42.656;23.292;2023-05-21T01:29:11;94174.38;;;14.05;92.48
9676;BME280;4876;42.656;23.292;2023-05-21T01:31:50;94182.19;;;14.14;92.71
9676;BME280;4876;42.656;23.292;2023-05-21T01:34:22;94187.88;;;14.16;92.43
9676;BME280;4876;42.656;23.292;2023-05-21T01:36:58;94179.31;;;14.19;92.23
9676;BME280;4876;42.656;23.292;2023-05-21T01:39:32;94175.50;;;14.04;92.21
9676;BME280;4876;42.656;23.292;2023-05-21T01:42:05;94172.94;;;14.08;93.47
9676;BME280;4876;42.656;23.292;2023-05-21T01:44:34;94182.75;;;14.07;93.15
9676;BME280;4876;42.656;23.292;2023-05-21T01:47:02;94182.09;;;14.10;93.26
9676;BME280;4876;42.656;23.292;2023-05-21T01:49:30;94177.56;;;14.11;92.56
9676;BME280;4876;42.656;23.292;2023-05-21T01:51:57;94181.97;;;14.07;92.61
9676;BME280;4876;42.656;23.292;2023-05-21T01:54:24;94185.72;;;14.06;92.85
9676;BME280;4876;42.656;23.292;2023-05-21T01:56:52;94176.06;;;13.97;93.75
9676;BME280;4876;42.656;23.292;2023-05-21T01:59:20;94177.59;;;13.98;94.42
9676;BME280;4876;42.656;23.292;2023-05-21T02:01:46;94178.03;;;14.00;94.26
9676;BME280;4876;42.656;23.292;2023-05-21T02:04:13;94176.50;;;13.99;94.49
9676;BME280;4876;42.656;23.292;2023-05-21T02:06:40;94165.25;;;14.02;94.12
9676;BME280;4876;42.656;23.292;2023-05-21T02:09:07;94167.44;;;14.00;93.83
9676;BME280;4876;42.656;23.292;2023-05-21T02:11:34;94169.00;;;14.01;93.43
9676;BME280;4876;42.656;23.292;2023-05-21T02:14:02;94164.47;;;14.02;92.83
9676;BME280;4876;42.656;23.292;2023-05-21T02:16:29;94171.63;;;14.01;92.35
9676;BME280;4876;42.656;23.292;2023-05-21T02:18:56;94166.38;;;13.89;92.69
9676;BME280;4876;42.656;23.292;2023-05-21T02:21:24;94158.59;;;13.81;93.84
9676;BME280;4876;42.656;23.292;2023-05-21T02:23:51;94158.13;;;13.79;94.34
9676;BME280;4876;42.656;23.292;2023-05-21T02:26:19;94167.72;;;13.83;94.07
9676;BME280;4876;42.656;23.292;2023-05-21T02:28:46;94158.25;;;13.82;93.35
9676;BME280;4876;42.656;23.292;2023-05-21T02:31:15;94155.28;;;13.71;93.51
9676;BME280;4876;42.656;23.292;2023-05-21T02:33:41;94166.31;;;13.61;94.33
9676;BME280;4876;42.656;23.292;2023-05-21T02:36:08;94158.94;;;13.67;94.28
9676;BME280;4876;42.656;23.292;2023-05-21T02:38:37;94155.19;;;13.68;93.61
9676;BME280;4876;42.656;23.292;2023-05-21T02:41:08;94164.22;;;13.67;94.13
9676;BME280;4876;42.656;23.292;2023-05-21T02:43:35;94152.09;;;13.66;94.37
9676;BME280;4876;42.656;23.292;2023-05-21T02:46:04;94153.31;;;13.68;94.02
9676;BME280;4876;42.656;23.292;2023-05-21T02:48:32;94155.97;;;13.68;93.24
9676;BME280;4876;42.656;23.292;2023-05-21T02:50:59;94155.63;;;13.70;93.03
9676;BME280;4876;42.656;23.292;2023-05-21T02:53:26;94155.19;;;13.68;93.05
9676;BME280;4876;42.656;23.292;2023-05-21T02:55:52;94152.97;;;13.70;93.00
9676;BME280;4876;42.656;23.292;2023-05-21T02:58:20;94139.16;;;13.49;93.81
9676;BME280;4876;42.656;23.292;2023-05-21T03:00:50;94145.19;;;13.61;93.35
9676;BME280;4876;42.656;23.292;2023-05-21T03:03:17;94146.38;;;13.64;92.93
9676;BME280;4876;42.656;23.292;2023-05-21T03:05:45;94141.44;;;13.62;93.12
9676;BME280;4876;42.656;23.292;2023-05-21T03:08:12;94151.44;;;13.69;92.15
9676;BME280;4876;42.656;23.292;2023-05-21T03:10:39;94153.97;;;13.65;92.21
9676;BME280;4876;42.656;23.292;2023-05-21T03:13:06;94162.56;;;13.62;92.69
9676;BME280;4876;42.656;23.292;2023-05-21T03:15:32;94157.28;;;13.62;93.60
9676;BME280;4876;42.656;23.292;2023-05-21T03:18:00;94161.81;;;13.62;93.56
9676;BME280;4876;42.656;23.292;2023-05-21T03:20:27;94152.56;;;13.56;94.29
9676;BME280;4876;42.656;23.292;2023-05-21T03:22:56;94162.47;;;13.59;94.50
9676;BME280;4876;42.656;23.292;2023-05-21T03:25:22;94141.78;;;13.49;93.61
9676;BME280;4876;42.656;23.292;2023-05-21T03:27:50;94167.09;;;13.62;93.70
9676;BME280;4876;42.656;23.292;2023-05-21T03:30:17;94165.31;;;13.66;94.05
9676;BME280;4876;42.656;23.292;2023-05-21T03:32:45;94158.19;;;13.66;93.10
9676;BME280;4876;42.656;23.292;2023-05-21T03:35:12;94172.28;;;13.46;94.77
9676;BME280;4876;42.656;23.292;2023-05-21T03:37:39;94168.22;;;13.49;95.02
9676;BME280;4876;42.656;23.292;2023-05-21T03:40:08;94172.81;;;13.52;94.99
9676;BME280;4876;42.656;23.292;2023-05-21T03:42:35;94167.00;;;13.46;95.06
9676;BME280;4876;42.656;23.292;2023-05-21T03:45:02;94164.91;;;13.39;95.67
9676;BME280;4876;42.656;23.292;2023-05-21T03:47:29;94169.97;;;13.44;96.12
9676;BME280;4876;42.656;23.292;2023-05-21T03:49:56;94177.69;;;13.37;97.03
9676;BME280;4876;42.656;23.292;2023-05-21T03:52:22;94169.75;;;13.37;98.38
9676;BME280;4876;42.656;23.292;2023-05-21T03:54:49;94173.22;;;12.92;100.00
9676;BME280;4876;42.656;23.292;2023-05-21T03:57:17;94172.16;;;13.18;100.00
9676;BME280;4876;42.656;23.292;2023-05-21T03:59:44;94178.00;;;12.78;100.00
9676;BME280;4876;42.656;23.292;2023-05-21T04:02:11;94160.88;;;12.84;100.00
9676;BME280;4876;42.656;23.292;2023-05-21T04:04:38;94159.50;;;13.11;100.00
9676;BME280;4876;42.656;23.292;2023-05-21T04:07:04;94167.81;;;12.44;100.00
9676;BME280;4876;42.656;23.292;2023-05-21T04:09:39;94163.75;;;12.91;100.00
9676;BME280;4876;42.656;23.292;2023-05-21T04:12:05;94153.88;;;13.01;100.00
9676;BME280;4876;42.656;23.292;2023-05-21T04:14:34;94148.44;;;12.85;100.00
9676;BME280;4876;42.656;23.292;2023-05-21T04:17:02;94174.66;;;13.02;100.00
9676;BME280;4876;42.656;23.292;2023-05-21T04:19:29;94161.53;;;12.81;100.00
9676;BME280;4876;42.656;23.292;2023-05-21T04:21:56;94151.38;;;12.59;100.00
9676;BME280;4876;42.656;23.292;2023-05-21T04:24:23;94155.56;;;12.72;100.00
9676;BME280;4876;42.656;23.292;2023-05-21T04:26:50;94170.31;;;12.73;100.00
9676;BME280;4876;42.656;23.292;2023-05-21T04:29:17;94164.78;;;12.66;100.00
9676;BME280;4876;42.656;23.292;2023-05-21T04:31:47;94167.47;;;12.78;100.00
9676;BME280;4876;42.656;23.292;2023-05-21T04:34:14;94158.56;;;12.83;100.00
9676;BME280;4876;42.656;23.292;2023-05-21T04:36:42;94162.72;;;12.72;100.00
9676;BME280;4876;42.656;23.292;2023-05-21T04:39:09;94172.09;;;12.81;100.00
9676;BME280;4876;42.656;23.292;2023-05-21T04:41:36;94148.38;;;12.93;100.00
9676;BME280;4876;42.656;23.292;2023-05-21T04:44:05;94158.91;;;12.93;100.00
9676;BME280;4876;42.656;23.292;2023-05-21T04:46:32;94164.50;;;12.80;100.00
9676;BME280;4876;42.656;23.292;2023-05-21T04:49:01;94171.00;;;12.82;100.00
9676;BME280;4876;42.656;23.292;2023-05-21T04:51:29;94165.31;;;13.17;100.00
9676;BME280;4876;42.656;23.292;2023-05-21T04:53:55;94171.72;;;13.28;100.00
9676;BME280;4876;42.656;23.292;2023-05-21T04:56:23;94165.88;;;13.59;100.00
9676;BME280;4876;42.656;23.292;2023-05-21T04:58:51;94162.22;;;13.76;98.66
9676;BME280;4876;42.656;23.292;2023-05-21T05:01:18;94163.50;;;13.94;94.90
9676;BME280;4876;42.656;23.292;2023-05-21T05:03:47;94167.16;;;13.90;97.29
9676;BME280;4876;42.656;23.292;2023-05-21T05:06:15;94154.78;;;14.06;99.24
9676;BME280;4876;42.656;23.292;2023-05-21T05:08:42;94160.00;;;13.78;98.03
9676;BME280;4876;42.656;23.292;2023-05-21T05:11:09;94162.16;;;14.00;96.89
9676;BME280;4876;42.656;23.292;2023-05-21T05:13:36;94150.44;;;14.14;96.48
9676;BME280;4876;42.656;23.292;2023-05-21T05:16:03;94162.84;;;13.97;96.59
9676;BME280;4876;42.656;23.292;2023-05-21T05:18:30;94158.91;;;14.19;97.94
9676;BME280;4876;42.656;23.292;2023-05-21T05:20:58;94157.38;;;14.46;90.76
9676;BME280;4876;42.656;23.292;2023-05-21T05:23:26;94166.97;;;14.51;91.69
9676;BME280;4876;42.656;23.292;2023-05-21T05:25:53;94165.66;;;14.73;92.17
9676;BME280;4876;42.656;23.292;2023-05-21T05:28:20;94163.81;;;15.05;91.76
9676;BME280;4876;42.656;23.292;2023-05-21T05:30:46;94169.88;;;15.05;89.27
9676;BME280;4876;42.656;23.292;2023-05-21T05:33:13;94160.56;;;15.12;90.64
9676;BME280;4876;42.656;23.292;2023-05-21T05:35:40;94162.88;;;15.29;79.05
9676;BME280;4876;42.656;23.292;2023-05-21T05:38:07;94166.75;;;15.51;77.49
9676;BME280;4876;42.656;23.292;2023-05-21T05:40:35;94172.72;;;15.79;75.39
9676;BME280;4876;42.656;23.292;2023-05-21T05:43:02;94167.06;;;15.81;79.22
9676;BME280;4876;42.656;23.292;2023-05-21T05:45:29;94169.34;;;15.98;73.71
9676;BME280;4876;42.656;23.292;2023-05-21T05:47:56;94166.13;;;16.08;80.69
9676;BME280;4876;42.656;23.292;2023-05-21T05:50:22;94161.13;;;16.23;81.09
9676;BME280;4876;42.656;23.292;2023-05-21T05:52:49;94160.84;;;16.28;76.97
9676;BME280;4876;42.656;23.292;2023-05-21T05:55:16;94140.16;;;16.18;76.72
9676;BME280;4876;42.656;23.292;2023-05-21T05:57:44;94164.31;;;16.32;75.70
9676;BME280;4876;42.656;23.292;2023-05-21T06:00:12;94157.56;;;16.34;74.67
9676;BME280;4876;42.656;23.292;2023-05-21T06:02:39;94160.41;;;16.45;72.34
9676;BME280;4876;42.656;23.292;2023-05-21T06:05:06;94158.81;;;16.40;71.80
9676;BME280;4876;42.656;23.292;2023-05-21T06:07:35;94160.56;;;16.52;73.89
9676;BME280;4876;42.656;23.292;2023-05-21T06:10:03;94164.91;;;16.64;73.50
9676;BME280;4876;42.656;23.292;2023-05-21T06:12:30;94159.84;;;16.98;71.03
9676;BME280;4876;42.656;23.292;2023-05-21T06:14:58;94151.84;;;17.43;66.97
9676;BME280;4876;42.656;23.292;2023-05-21T06:17:25;94155.72;;;17.72;64.36
9676;BME280;4876;42.656;23.292;2023-05-21T06:19:52;94156.72;;;17.91;64.17
9676;BME280;4876;42.656;23.292;2023-05-21T06:22:18;94151.75;;;18.19;64.45
9676;BME280;4876;42.656;23.292;2023-05-21T06:24:45;94145.09;;;18.33;61.09
9676;BME280;4876;42.656;23.292;2023-05-21T06:27:12;94149.19;;;18.60;60.51
9676;BME280;4876;42.656;23.292;2023-05-21T06:29:39;94145.06;;;18.66;61.34
9676;BME280;4876;42.656;23.292;2023-05-21T06:32:07;94147.81;;;18.73;58.72
9676;BME280;4876;42.656;23.292;2023-05-21T06:34:34;94150.56;;;18.47;59.59
9676;BME280;4876;42.656;23.292;2023-05-21T06:37:01;94148.84;;;18.32;58.92
9676;BME280;4876;42.656;23.292;2023-05-21T06:39:28;94143.28;;;18.10;59.76
9676;BME280;4876;42.656;23.292;2023-05-21T06:41:54;94148.16;;;18.05;60.59
9676;BME280;4876;42.656;23.292;2023-05-21T06:44:21;94142.22;;;17.85;61.89
9676;BME280;4876;42.656;23.292;2023-05-21T06:46:48;94134.13;;;17.78;61.55
9676;BME280;4876;42.656;23.292;2023-05-21T06:49:16;94135.88;;;17.70;60.72
9676;BME280;4876;42.656;23.292;2023-05-21T06:51:43;94132.25;;;17.78;62.23
9676;BME280;4876;42.656;23.292;2023-05-21T06:54:09;94135.03;;;17.62;61.72
9676;BME280;4876;42.656;23.292;2023-05-21T06:56:36;94133.47;;;17.58;62.29
9676;BME280;4876;42.656;23.292;2023-05-21T06:59:03;94133.59;;;17.68;61.83
9676;BME280;4876;42.656;23.292;2023-05-21T07:01:39;94133.97;;;17.67;63.14
9676;BME280;4876;42.656;23.292;2023-05-21T07:04:08;94142.31;;;17.92;63.80
9676;BME280;4876;42.656;23.292;2023-05-21T07:06:36;94132.50;;;17.99;62.50
9676;BME280;4876;42.656;23.292;2023-05-21T07:09:03;94136.47;;;18.13;61.26
9676;BME280;4876;42.656;23.292;2023-05-21T07:11:30;94128.88;;;18.45;61.75
9676;BME280;4876;42.656;23.292;2023-05-21T07:13:57;94132.94;;;18.69;59.46
9676;BME280;4876;42.656;23.292;2023-05-21T07:16:25;94125.25;;;19.01;60.19
9676;BME280;4876;42.656;23.292;2023-05-21T07:18:52;94129.31;;;19.35;58.03
9676;BME280;4876;42.656;23.292;2023-05-21T07:21:19;94129.03;;;19.48;57.66
9676;BME280;4876;42.656;23.292;2023-05-21T07:23:47;94135.56;;;19.54;56.19
9676;BME280;4876;42.656;23.292;2023-05-21T07:26:14;94131.38;;;19.56;56.64
9676;BME280;4876;42.656;23.292;2023-05-21T07:28:41;94138.75;;;19.70;55.99
9676;BME280;4876;42.656;23.292;2023-05-21T07:31:08;94147.06;;;19.58;55.18
9676;BME280;4876;42.656;23.292;2023-05-21T07:33:36;94133.22;;;19.49;56.67
9676;BME280;4876;42.656;23.292;2023-05-21T07:36:04;94141.09;;;18.87;57.04
9676;BME280;4876;42.656;23.292;2023-05-21T07:38:31;94137.03;;;18.63;58.56
9676;BME280;4876;42.656;23.292;2023-05-21T07:40:59;94142.78;;;18.65;58.54
9676;BME280;4876;42.656;23.292;2023-05-21T07:43:26;94132.06;;;18.95;58.18
9676;BME280;4876;42.656;23.292;2023-05-21T07:45:53;94141.81;;;18.80;56.68
9676;BME280;4876;42.656;23.292;2023-05-21T07:48:22;94144.69;;;18.64;56.68
9676;BME280;4876;42.656;23.292;2023-05-21T07:50:48;94152.69;;;19.05;55.79
9676;BME280;4876;42.656;23.292;2023-05-21T07:53:17;94133.16;;;18.94;57.24
9676;BME280;4876;42.656;23.292;2023-05-21T07:55:45;94133.41;;;19.22;57.33
9676;BME280;4876;42.656;23.292;2023-05-21T07:58:15;94143.72;;;19.24;56.13
9676;BME280;4876;42.656;23.292;2023-05-21T08:00:44;94134.28;;;19.33;56.45
9676;BME280;4876;42.656;23.292;2023-05-21T08:03:13;94124.13;;;19.02;54.86
9676;BME280;4876;42.656;23.292;2023-05-21T08:05:41;94130.97;;;19.51;55.25
9676;BME280;4876;42.656;23.292;2023-05-21T08:08:12;94130.78;;;19.77;53.40
9676;BME280;4876;42.656;23.292;2023-05-21T08:10:39;94135.53;;;19.50;52.44
9676;BME280;4876;42.656;23.292;2023-05-21T08:13:06;94137.75;;;19.96;52.85
9676;BME280;4876;42.656;23.292;2023-05-21T08:15:34;94131.16;;;19.76;51.51
9676;BME280;4876;42.656;23.292;2023-05-21T08:18:01;94124.84;;;20.16;52.13
9676;BME280;4876;42.656;23.292;2023-05-21T08:20:28;94142.72;;;20.05;48.51
9676;BME280;4876;42.656;23.292;2023-05-21T08:22:57;94112.06;;;19.70;48.85
9676;BME280;4876;42.656;23.292;2023-05-21T08:25:24;94125.94;;;20.01;48.54
9676;BME280;4876;42.656;23.292;2023-05-21T08:27:51;94137.69;;;19.85;47.30
9676;BME280;4876;42.656;23.292;2023-05-21T08:30:18;94130.53;;;19.45;47.34
9676;BME280;4876;42.656;23.292;2023-05-21T08:32:46;94130.13;;;19.43;48.50
9676;BME280;4876;42.656;23.292;2023-05-21T08:35:14;94137.66;;;19.30;48.77
9676;BME280;4876;42.656;23.292;2023-05-21T08:37:40;94134.66;;;19.32;48.54
9676;BME280;4876;42.656;23.292;2023-05-21T08:40:09;94145.31;;;19.32;48.31
9676;BME280;4876;42.656;23.292;2023-05-21T08:42:42;94120.69;;;19.05;48.18
9676;BME280;4876;42.656;23.292;2023-05-21T08:45:10;94133.69;;;19.10;47.87
9676;BME280;4876;42.656;23.292;2023-05-21T08:47:40;94138.03;;;19.29;48.52
9676;BME280;4876;42.656;23.292;2023-05-21T08:50:10;94137.72;;;19.37;48.44
9676;BME280;4876;42.656;23.292;2023-05-21T08:52:38;94138.69;;;19.15;48.15
9676;BME280;4876;42.656;23.292;2023-05-21T08:55:05;94122.50;;;19.42;48.52
9676;BME280;4876;42.656;23.292;2023-05-21T08:57:33;94137.78;;;19.48;47.08
9676;BME280;4876;42.656;23.292;2023-05-21T09:00:00;94132.44;;;19.45;48.56
9676;BME280;4876;42.656;23.292;2023-05-21T09:02:32;94133.97;;;19.46;48.25
9676;BME280;4876;42.656;23.292;2023-05-21T09:04:59;94140.69;;;19.29;49.79
9676;BME280;4876;42.656;23.292;2023-05-21T09:07:30;94139.94;;;19.28;49.64
9676;BME280;4876;42.656;23.292;2023-05-21T09:10:03;94136.88;;;19.26;50.52
9676;BME280;4876;42.656;23.292;2023-05-21T09:12:35;94130.44;;;19.31;51.36
9676;BME280;4876;42.656;23.292;2023-05-21T09:15:02;94130.09;;;19.36;52.44
9676;BME280;4876;42.656;23.292;2023-05-21T09:17:29;94130.50;;;19.42;53.42
9676;BME280;4876;42.656;23.292;2023-05-21T09:20:07;94122.69;;;19.63;53.28
9676;BME280;4876;42.656;23.292;2023-05-21T09:22:43;94119.59;;;19.57;54.37
9676;BME280;4876;42.656;23.292;2023-05-21T09:25:10;94125.13;;;19.89;51.46
9676;BME280;4876;42.656;23.292;2023-05-21T09:27:38;94132.41;;;19.96;51.30
9676;BME280;4876;42.656;23.292;2023-05-21T09:30:08;94141.22;;;20.07;50.87
9676;BME280;4876;42.656;23.292;2023-05-21T09:32:36;94127.22;;;20.35;51.05
9676;BME280;4876;42.656;23.292;2023-05-21T09:35:06;94113.41;;;20.15;47.56
9676;BME280;4876;42.656;23.292;2023-05-21T09:37:36;94111.53;;;20.23;45.82
9676;BME280;4876;42.656;23.292;2023-05-21T09:40:11;94121.47;;;20.26;45.31
9676;BME280;4876;42.656;23.292;2023-05-21T09:42:38;94086.31;;;20.10;44.97
9676;BME280;4876;42.656;23.292;2023-05-21T09:45:06;94121.91;;;20.42;44.94
9676;BME280;4876;42.656;23.292;2023-05-21T09:47:33;94116.16;;;20.33;43.73
9676;BME280;4876;42.656;23.292;2023-05-21T09:50:07;94132.91;;;20.23;43.38
9676;BME280;4876;42.656;23.292;2023-05-21T09:52:35;94111.97;;;20.39;45.91
9676;BME280;4876;42.656;23.292;2023-05-21T09:55:02;94121.47;;;20.26;43.38
9676;BME280;4876;42.656;23.292;2023-05-21T09:57:30;94119.97;;;20.32;45.15
9676;BME280;4876;42.656;23.292;2023-05-21T09:59:57;94114.34;;;20.52;45.09
9676;BME280;4876;42.656;23.292;2023-05-21T10:02:24;94114.72;;;20.54;44.93
9676;BME280;4876;42.656;23.292;2023-05-21T10:04:52;94118.56;;;20.67;44.31
9676;BME280;4876;42.656;23.292;2023-05-21T10:07:20;94120.81;;;20.51;43.94
9676;BME280;4876;42.656;23.292;2023-05-21T10:09:52;94113.88;;;20.42;43.45
9676;BME280;4876;42.656;23.292;2023-05-21T10:12:21;94110.88;;;20.48;42.79
9676;BME280;4876;42.656;23.292;2023-05-21T10:14:50;94116.22;;;20.55;43.94
9676;BME280;4876;42.656;23.292;2023-05-21T10:17:19;94110.53;;;20.60;42.63
9676;BME280;4876;42.656;23.292;2023-05-21T10:19:47;94110.84;;;20.44;42.32
9676;BME280;4876;42.656;23.292;2023-05-21T10:22:14;94112.44;;;20.59;42.71
9676;BME280;4876;42.656;23.292;2023-05-21T10:24:42;94096.44;;;20.77;42.40
9676;BME280;4876;42.656;23.292;2023-05-21T10:27:10;94098.34;;;20.91;42.67
9676;BME280;4876;42.656;23.292;2023-05-21T10:29:40;94093.03;;;21.02;43.22
9676;BME280;4876;42.656;23.292;2023-05-21T10:32:12;94098.38;;;20.87;43.26
9676;BME280;4876;42.656;23.292;2023-05-21T10:34:41;94105.63;;;21.12;42.99
9676;BME280;4876;42.656;23.292;2023-05-21T10:37:08;94099.88;;;21.24;42.65
9676;BME280;4876;42.656;23.292;2023-05-21T10:39:38;94102.16;;;20.68;42.34
9676;BME280;4876;42.656;23.292;2023-05-21T10:42:11;94087.19;;;20.39;44.13
9676;BME280;4876;42.656;23.292;2023-05-21T10:44:55;94105.56;;;20.62;42.95
9676;BME280;4876;42.656;23.292;2023-05-21T10:47:41;94102.91;;;20.80;43.09
9676;BME280;4876;42.656;23.292;2023-05-21T10:50:26;94091.09;;;21.02;42.75
9676;BME280;4876;42.656;23.292;2023-05-21T10:53:01;94096.84;;;21.04;42.94
9676;BME280;4876;42.656;23.292;2023-05-21T10:55:41;94093.78;;;20.98;44.90
9676;BME280;4876;42.656;23.292;2023-05-21T10:58:33;94097.97;;;20.85;42.95
9676;BME280;4876;42.656;23.292;2023-05-21T11:01:05;94090.31;;;20.73;44.47
9676;BME280;4876;42.656;23.292;2023-05-21T11:03:35;94094.13;;;20.65;45.41
9676;BME280;4876;42.656;23.292;2023-05-21T11:06:02;94101.28;;;20.43;45.32
9676;BME280;4876;42.656;23.292;2023-05-21T11:08:30;94095.91;;;20.25;45.38
9676;BME280;4876;42.656;23.292;2023-05-21T11:11:01;94097.75;;;20.07;45.78
9676;BME280;4876;42.656;23.292;2023-05-21T11:13:28;94098.84;;;19.99;46.23
9676;BME280;4876;42.656;23.292;2023-05-21T11:16:06;94096.16;;;19.88;46.30
9676;BME280;4876;42.656;23.292;2023-05-21T11:18:57;94096.91;;;19.88;46.30
9676;BME280;4876;42.656;23.292;2023-05-21T11:21:27;94078.56;;;19.83;46.51
9676;BME280;4876;42.656;23.292;2023-05-21T11:23:58;94081.75;;;20.07;46.87
9676;BME280;4876;42.656;23.292;2023-05-21T11:26:28;94077.56;;;20.13;46.20
9676;BME280;4876;42.656;23.292;2023-05-21T11:29:07;94079.53;;;20.37;46.13
9676;BME280;4876;42.656;23.292;2023-05-21T11:31:34;94068.06;;;20.37;45.29
9676;BME280;4876;42.656;23.292;2023-05-21T11:34:14;94075.25;;;20.08;44.98
9676;BME280;4876;42.656;23.292;2023-05-21T11:36:45;94068.00;;;20.08;44.92
9676;BME280;4876;42.656;23.292;2023-05-21T11:39:13;94068.75;;;20.09;45.20
9676;BME280;4876;42.656;23.292;2023-05-21T11:41:51;94071.78;;;19.97;45.43
9676;BME280;4876;42.656;23.292;2023-05-21T11:44:21;94073.66;;;19.89;45.96
9676;BME280;4876;42.656;23.292;2023-05-21T11:47:03;94067.94;;;19.90;46.44
9676;BME280;4876;42.656;23.292;2023-05-21T11:49:32;94062.56;;;19.83;46.30
9676;BME280;4876;42.656;23.292;2023-05-21T11:51:59;94064.47;;;19.86;46.09
9676;BME280;4876;42.656;23.292;2023-05-21T11:54:27;94067.91;;;19.83;46.81
9676;BME280;4876;42.656;23.292;2023-05-21T11:57:02;94066.38;;;19.82;46.63
9676;BME280;4876;42.656;23.292;2023-05-21T11:59:31;94067.88;;;19.80;47.40
9676;BME280;4876;42.656;23.292;2023-05-21T12:01:59;94067.88;;;19.76;47.59
9676;BME280;4876;42.656;23.292;2023-05-21T12:04:28;94070.88;;;19.68;47.77
9676;BME280;4876;42.656;23.292;2023-05-21T12:06:56;94063.25;;;19.66;47.42
9676;BME280;4876;42.656;23.292;2023-05-21T12:09:23;94051.06;;;19.72;47.64
9676;BME280;4876;42.656;23.292;2023-05-21T12:11:50;94053.41;;;19.77;47.82
9676;BME280;4876;42.656;23.292;2023-05-21T12:14:17;94052.13;;;19.57;47.61
9676;BME280;4876;42.656;23.292;2023-05-21T12:16:44;94055.22;;;19.59;48.30
9676;BME280;4876;42.656;23.292;2023-05-21T12:19:11;94066.19;;;19.50;48.63
9676;BME280;4876;42.656;23.292;2023-05-21T12:21:38;94057.41;;;19.50;49.94
9676;BME280;4876;42.656;23.292;2023-05-21T12:24:06;94054.69;;;19.43;50.08
9676;BME280;4876;42.656;23.292;2023-05-21T12:26:33;94056.97;;;19.41;50.56
9676;BME280;4876;42.656;23.292;2023-05-21T12:29:00;94056.63;;;19.46;50.77
9676;BME280;4876;42.656;23.292;2023-05-21T12:31:29;94053.19;;;19.45;50.72
9676;BME280;4876;42.656;23.292;2023-05-21T12:33:57;94055.13;;;19.48;50.92
9676;BME280;4876;42.656;23.292;2023-05-21T12:36:26;94061.50;;;19.33;51.03
9676;BME280;4876;42.656;23.292;2023-05-21T12:38:53;94051.91;;;19.25;51.67
9676;BME280;4876;42.656;23.292;2023-05-21T12:41:22;94046.22;;;19.26;52.44
9676;BME280;4876;42.656;23.292;2023-05-21T12:43:49;94047.75;;;19.27;52.41
9676;BME280;4876;42.656;23.292;2023-05-21T12:46:16;94036.31;;;19.23;52.45
9676;BME280;4876;42.656;23.292;2023-05-21T12:48:52;94043.91;;;19.21;52.28
9676;BME280;4876;42.656;23.292;2023-05-21T12:51:19;94022.56;;;19.18;52.03
9676;BME280;4876;42.656;23.292;2023-05-21T12:53:46;94032.50;;;19.24;52.24
9676;BME280;4876;42.656;23.292;2023-05-21T12:56:14;94043.59;;;19.33;51.71
9676;BME280;4876;42.656;23.292;2023-05-21T12:58:48;94040.97;;;19.41;52.18
9676;BME280;4876;42.656;23.292;2023-05-21T13:01:15;94035.66;;;19.41;52.26
9676;BME280;4876;42.656;23.292;2023-05-21T13:03:43;94044.41;;;19.41;52.71
9676;BME280;4876;42.656;23.292;2023-05-21T13:06:10;94036.41;;;19.41;52.94
9676;BME280;4876;42.656;23.292;2023-05-21T13:08:39;94040.63;;;19.49;52.87
9676;BME280;4876;42.656;23.292;2023-05-21T13:11:05;94037.97;;;19.49;52.83
9676;BME280;4876;42.656;23.292;2023-05-21T13:13:32;94038.38;;;19.55;52.84
9676;BME280;4876;42.656;23.292;2023-05-21T13:16:00;94033.47;;;19.60;52.63